Flight Track Log - Related Links

Times and Time Zones

All times are in EDT time to prevent confusion due to time zone crossing. See the N896P flight status page for this flight to view local times or setup timezone preferences in your user account.

Time Position Orientation Groundspeed Altitude Reporting Facility
EDT Latitude Longitude Course Direction KTS MPH feet Rate Location/Type
Wed 05:56:26 PM 32.8167 -97.3500 186° South 134 154 1,200  Level Dallas / Fort Worth TRACON
Wed 05:57:15 PM 32.7603 -97.3567 186° South 200 230 3,300 3,193 Climbing Fort Worth Center
Wed 05:58:15 PM 32.7144 -97.3639 188° South 229 264 7,000 3,250 Climbing Fort Worth Center
Wed 05:59:15 PM 32.7247 -97.4481 278° West 264 304 9,800 3,150 Climbing Fort Worth Center
Wed 06:00:15 PM 32.7436 -97.5269 286° West 280 322 13,300 3,100 Climbing Fort Worth Center
Wed 06:01:15 PM 32.7664 -97.6111 288° West 281 323 16,000 2,400 Climbing Fort Worth Center
Wed 06:02:15 PM 32.7850 -97.6925 285° West 281 323 18,100 2,100 Climbing Fort Worth Center
Wed 06:03:15 PM 32.8161 -97.7917 290° West 288 331 20,200 1,650 Climbing Fort Worth Center
Wed 06:04:15 PM 32.8472 -97.8708 295° West 293 337 21,400 1,350 Climbing Fort Worth Center
Wed 06:05:15 PM 32.8947 -97.9650 301° West 298 343 22,900 1,300 Climbing Fort Worth Center
Wed 06:06:15 PM 32.9403 -98.0544 301° West 306 352 24,000 1,350 Climbing Fort Worth Center
Wed 06:07:15 PM 32.9836 -98.1442 300° West 311 358 25,600 1,000 Climbing Fort Worth Center
Wed 06:08:15 PM 33.0331 -98.2386 302° West 322 371 26,000 650 Climbing Fort Worth Center
Wed 06:09:15 PM 33.0844 -98.3433 300° West 345 397 26,900 1,300 Climbing Fort Worth Center
Wed 06:10:15 PM 33.1339 -98.4478 300° West 357 411 28,600 1,550 Climbing Fort Worth Center
Wed 06:11:15 PM 33.1769 -98.5303 302° West 351 404 30,000 1,600 Climbing Fort Worth Center
Wed 06:12:15 PM 33.2219 -98.6228 300° West 338 389 31,800 1,650 Climbing Fort Worth Center
Wed 06:13:15 PM 33.2692 -98.7153 301° West 338 389 33,300 1,400 Climbing Fort Worth Center
Wed 06:14:15 PM 33.3119 -98.8106 298° West 333 383 34,600 1,150 Climbing Fort Worth Center
Wed 06:15:15 PM 33.3608 -98.9058 302° West 333 383 35,600 1,050 Climbing Fort Worth Center
Wed 06:16:15 PM 33.4078 -99.0011 301° West 333 383 36,700 950 Climbing Fort Worth Center
Wed 06:17:15 PM 33.4544 -99.0989 300° West 333 383 37,500 600 Climbing Fort Worth Center
Wed 06:18:15 PM 33.4992 -99.1944 299° West 333 383 37,900 450 Climbing Fort Worth Center
Wed 06:19:15 PM 33.5478 -99.2953 300° West 333 383 38,400 450 Climbing Fort Worth Center
Wed 06:20:15 PM 33.5983 -99.3961 301° West 339 390 38,800 500 Climbing Fort Worth Center
Wed 06:21:15 PM 33.6469 -99.4919 301° West 339 390 39,400 550 Climbing Fort Worth Center
Wed 06:22:15 PM 33.6994 -99.5856 304° West 339 390 39,900 300 Climbing Fort Worth Center
Wed 06:23:15 PM 33.7753 -99.6600 321° Northwest 345 397 40,000 50 Climbing Fort Worth Center
Wed 06:24:15 PM 33.8725 -99.7175 334° Northwest 371 427 40,000  Level Fort Worth Center
Wed 06:25:15 PM 33.9736 -99.7703 337° Northwest 381 438 40,000 250 Level Fort Worth Center
Wed 06:26:15 PM 34.0769 -99.8281 335° Northwest 394 453 40,500 650 Climbing Fort Worth Center
Wed 06:27:15 PM 34.1758 -99.8861 334° Northwest 399 459 41,300 650 Climbing Fort Worth Center
Wed 06:28:15 PM 34.2750 -99.9442 334° Northwest 394 453 41,800 505 Climbing Fort Worth Center
Wed 06:30:37 PM 34.5114 -100.0781 335° Northwest 398 458 43,000 355 Climbing Albuquerque Center
Wed 06:31:38 PM 34.6217 -100.1408 335° Northwest 403 464 43,000  Level Albuquerque Center
Wed 06:32:40 PM 34.7200 -100.1961 335° Northwest 412 474 43,000  Level Albuquerque Center
Wed 06:33:41 PM 34.8239 -100.2572 334° Northwest 413 475 43,000  Level Albuquerque Center
Wed 06:34:43 PM 34.9497 -100.3300 335° Northwest 414 476 43,000  Level Albuquerque Center
Wed 06:35:45 PM 35.0375 -100.3819 334° Northwest 416 479 43,000  Level Albuquerque Center
Wed 06:36:46 PM 35.1625 -100.4528 335° Northwest 415 478 43,000  Level Albuquerque Center
Wed 06:37:48 PM 35.2606 -100.5100 335° Northwest 406 467 43,000  Level Albuquerque Center
Wed 06:38:50 PM 35.3619 -100.5703 334° Northwest 403 464 43,000  Level Albuquerque Center
Wed 06:39:51 PM 35.4636 -100.6300 334° Northwest 402 463 43,000  Level Albuquerque Center
Wed 06:40:53 PM 35.5675 -100.6900 335° Northwest 407 468 43,000  Level Albuquerque Center
Wed 06:41:54 PM 35.6717 -100.7508 335° Northwest 413 475 43,000  Level Albuquerque Center
Wed 06:42:56 PM 35.7778 -100.8147 334° Northwest 412 474 43,000  Level Albuquerque Center
Wed 06:43:57 PM 35.8789 -100.8753 334° Northwest 408 470 43,000  Level Albuquerque Center
Wed 06:44:59 PM 35.9944 -100.9436 334° Northwest 403 464 43,000  Level Albuquerque Center
Wed 06:46:00 PM 36.0997 -101.0064 334° Northwest 398 458 43,000  Level Albuquerque Center
Wed 06:47:02 PM 36.1986 -101.0644 335° Northwest 394 453 43,000  Level Albuquerque Center
Wed 06:48:03 PM 36.2925 -101.1228 333° Northwest 394 453 43,000  Level Albuquerque Center
Wed 06:49:05 PM 36.4044 -101.1892 334° Northwest 397 457 43,000  Level Albuquerque Center
Wed 06:50:06 PM 36.5003 -101.2489 333° Northwest 400 460 43,000  Level Albuquerque Center
Wed 06:51:08 PM 36.5969 -101.3075 334° Northwest 402 463 43,000  Level Albuquerque Center
Wed 06:52:09 PM 36.7106 -101.3769 334° Northwest 405 466 43,000  Level Albuquerque Center
Wed 06:53:11 PM 36.8086 -101.4367 334° Northwest 408 470 43,000  Level Albuquerque Center
Wed 06:54:12 PM 36.9208 -101.5050 334° Northwest 402 463 43,000  Level Albuquerque Center
Wed 06:55:13 PM 37.0175 -101.5644 334° Northwest 402 463 43,000  Level Albuquerque Center
Wed 06:56:15 PM 37.1136 -101.6225 334° Northwest 400 460 43,000  Level Albuquerque Center
Wed 06:57:16 PM 37.2244 -101.6917 334° Northwest 398 458 43,000  Level Albuquerque Center
Wed 06:58:18 PM 37.3211 -101.7508 334° Northwest 399 459 43,000  Level Albuquerque Center
Wed 06:59:19 PM 37.4161 -101.8114 333° Northwest 399 459 43,000  Level Albuquerque Center
Wed 07:00:20 PM 37.5281 -101.8800 334° Northwest 399 459 43,000  Level Denver Center
Wed 07:01:22 PM 37.6256 -101.9406 334° Northwest 406 467 43,000  Level Denver Center
Wed 07:02:25 PM 37.7386 -102.0108 334° Northwest 404 465 43,000  Level Denver Center
Wed 07:03:26 PM 37.8350 -102.0706 334° Northwest 403 464 43,000  Level Denver Center
Wed 07:04:40 PM 37.9486 -102.1417 334° Northwest 406 467 43,000  Level Denver Center
Wed 07:05:42 PM 38.0603 -102.2131 333° Northwest 404 465 43,000  Level Denver Center
Wed 07:06:44 PM 38.1725 -102.2844 333° Northwest 404 465 43,000  Level Denver Center
Wed 07:07:46 PM 38.2686 -102.3456 333° Northwest 402 463 43,000  Level Denver Center
Wed 07:08:48 PM 38.3803 -102.4169 333° Northwest 402 463 43,000  Level Denver Center
Wed 07:09:50 PM 38.4758 -102.4775 334° Northwest 401 461 43,000  Level Denver Center
Wed 07:10:52 PM 38.5869 -102.5486 333° Northwest 400 460 43,000  Level Denver Center
Wed 07:11:54 PM 38.6814 -102.6089 334° Northwest 398 458 43,000  Level Denver Center
Wed 07:13:08 PM 38.7906 -102.6797 333° Northwest 395 455 43,000  Level Denver Center
Wed 07:14:11 PM 38.9114 -102.7572 333° Northwest 393 452 43,000  Level Denver Center
Wed 07:15:13 PM 39.0058 -102.8208 332° Northwest 387 445 43,000  Level Denver Center
Wed 07:16:15 PM 39.1025 -102.8842 333° Northwest 388 447 43,000  Level Denver Center
Wed 07:17:17 PM 39.1975 -102.9461 333° Northwest 386 444 43,000  Level Denver Center
Wed 07:18:19 PM 39.2933 -103.0089 333° Northwest 386 444 43,000  Level Denver Center
Wed 07:19:21 PM 39.3694 -103.0581 333° Northwest 387 445 43,000  Level Denver Center
Wed 07:20:23 PM 39.5033 -103.1481 333° Northwest 389 448 43,000  Level Denver Center
Wed 07:21:25 PM 39.5992 -103.2117 333° Northwest 389 448 43,000  Level Denver Center
Wed 07:22:27 PM 39.6958 -103.2753 333° Northwest 390 449 43,000  Level Denver Center
Wed 07:23:29 PM 39.7919 -103.3403 333° Northwest 391 450 43,000  Level Denver Center
Wed 07:24:31 PM 39.8889 -103.4039 333° Northwest 391 450 43,000  Level Denver Center
Wed 07:25:33 PM 40.0050 -103.4831 332° Northwest 394 453 43,000  Level Denver Center
Wed 07:26:35 PM 40.1003 -103.5469 333° Northwest 390 449 43,000  Level Denver Center
Wed 07:27:38 PM 40.1967 -103.6119 333° Northwest 390 449 43,000  Level Denver Center
Wed 07:28:40 PM 40.2928 -103.6781 332° Northwest 393 452 43,000  Level Denver Center
Wed 07:29:42 PM 40.3892 -103.7417 333° Northwest 390 449 43,000  Level Denver Center
Wed 07:30:44 PM 40.5050 -103.8228 332° Northwest 393 452 43,000  Level Denver Center
Wed 07:31:46 PM 40.6008 -103.8889 332° Northwest 390 449 43,000  Level Denver Center
Wed 07:32:48 PM 40.6972 -103.9544 333° Northwest 391 450 43,000  Level Denver Center
Wed 07:33:50 PM 40.7914 -104.0206 332° Northwest 387 445 43,000  Level Denver Center
Wed 07:34:52 PM 40.8867 -104.0850 333° Northwest 385 443 43,000  Level Denver Center
Wed 07:35:54 PM 40.9981 -104.1644 332° Northwest 386 444 43,000  Level Denver Center
Wed 07:36:56 PM 41.0886 -104.2283 332° Northwest 385 443 43,000  Level Denver Center
Wed 07:37:58 PM 41.1792 -104.2903 333° Northwest 382 440 43,000  Level Denver Center
Wed 07:39:00 PM 41.2847 -104.3644 332° Northwest 383 441 43,000  Level Denver Center
Wed 07:40:02 PM 41.3747 -104.4297 331° Northwest 384 442 43,000  Level Denver Center
Wed 07:41:04 PM 41.4644 -104.4922 332° Northwest 380 437 43,000  Level Denver Center
Wed 07:42:07 PM 41.5694 -104.5669 332° Northwest 382 440 43,000  Level Denver Center
Wed 07:43:21 PM 41.6747 -104.6417 332° Northwest 383 441 43,000  Level Denver Center
Wed 07:44:23 PM 41.7933 -104.7269 332° Northwest 379 436 43,000  Level Denver Center
Wed 07:45:25 PM 41.8828 -104.7911 332° Northwest 380 437 43,000  Level Denver Center
Wed 07:46:27 PM 41.9722 -104.8564 332° Northwest 381 438 43,000  Level Denver Center
Wed 07:47:29 PM 42.0761 -104.9319 332° Northwest 379 436 43,000  Level Denver Center
Wed 07:48:31 PM 42.1656 -104.9969 332° Northwest 379 436 43,000  Level Denver Center
Wed 07:49:33 PM 42.2703 -105.0736 332° Northwest 381 438 43,000  Level Denver Center
Wed 07:50:35 PM 42.3606 -105.1378 332° Northwest 381 438 43,000  Level Denver Center
Wed 07:51:38 PM 42.4644 -105.2142 332° Northwest 379 436 43,000  Level Denver Center
Wed 07:52:40 PM 42.5539 -105.2800 332° Northwest 380 437 43,000  Level Denver Center
Wed 07:53:42 PM 42.6567 -105.3569 331° Northwest 377 434 43,000  Level Denver Center
Wed 07:54:44 PM 42.7442 -105.4228 331° Northwest 375 432 43,000 -290 Level Denver Center
Wed 07:55:46 PM 42.8353 -105.4867 333° Northwest 381 438 42,400 -968 Descending Denver Center
Wed 07:56:48 PM 42.9411 -105.5694 330° Northwest 389 448 41,000 -1,597 Descending Denver Center
Wed 07:57:50 PM 43.0311 -105.6386 331° Northwest 388 447 39,100 -2,032 Descending Denver Center
Wed 07:58:52 PM 43.1322 -105.7161 331° Northwest 375 432 36,800 -1,935 Descending Denver Center
Wed 07:59:54 PM 43.2189 -105.7836 330° Northwest 373 429 35,100 -1,839 Descending Denver Center
Wed 08:00:56 PM 43.3236 -105.8689 329° Northwest 390 449 33,000 -1,935 Descending Denver Center
Wed 08:01:58 PM 43.4172 -105.9411 331° Northwest 401 461 31,100 -1,809 Descending Denver Center
Wed 08:03:12 PM 43.5281 -106.0286 330° Northwest 409 471 28,900 -1,927 Descending Denver Center
Wed 08:04:15 PM 43.6400 -106.1172 330° Northwest 417 480 26,700 -1,392 Descending Denver Center
Wed 08:05:17 PM 43.7483 -106.2042 330° Northwest 403 464 26,000 -339 Descending Denver Center
Wed 08:06:19 PM 43.8406 -106.2778 330° Northwest 401 461 26,000  Level Denver Center
Wed 08:06:54 PM 43.9014 -106.3275 330° Northwest 399 459 26,000  Level Salt Lake Center
Wed 08:07:56 PM 43.9953 -106.4022 330° Northwest 404 465 26,000 -1,113 Level Salt Lake Center
Wed 08:08:58 PM 44.0831 -106.4736 330° Northwest 366 421 23,700 -2,758 Descending Salt Lake Center
Wed 08:10:00 PM 44.1894 -106.5575 331° Northwest 365 420 20,300 -2,952 Descending Salt Lake Center
Wed 08:11:02 PM 44.2756 -106.6281 330° Northwest 362 417 17,600 -2,661 Descending Salt Lake Center
Wed 08:12:04 PM 44.3586 -106.6956 330° Northwest 351 404 14,800 -2,516 Descending Salt Lake Center
Wed 08:13:06 PM 44.4303 -106.7658 325° Northwest 329 379 12,400 -2,226 Descending Salt Lake Center
Wed 08:14:08 PM 44.5022 -106.8219 331° Northwest 310 357 10,200 -2,129 Descending Salt Lake Center
Wed 08:16:00 PM 44.6431 -106.8842 335° Northwest  Level FlightAware Approximate
Wed 08:23:00 PM 44.7667 -106.9667 347° North  Level FlightAware Approximate
Wed 08:24:00 PM 44.7692 -106.9803 347° North  Level Estimated

Login

Don't have an account? Register now (free) for customized features, flight alerts, and more!